Kingsville NAS, TX

3:12 PM CDT on March 23, 2017 (GMT -0500)
Kingsville Naval Air Station | | Change Station
Active Advisory: Wind Advisory

Elev 49 ft 27.50 °N, 97.82 °W | Updated 16 minutes ago

Clear
Clear
85 °F
Feels Like 86 °F
N
25
Wind Variable Wind from SE
Gusts 34 mph

Today
High -- | Low -- °F
--% Chance of Precip.
Yesterday
High -- | Low -- °F
Precip. -- in
Pressure 29.99 in
Visibility 10.0 miles
Clouds Few 4500 ft
Few 16000 ft
Heat Index 86 °F
Dew Point 64 °F
Humidity 49%
Rainfall 0.00 in
Snow Depth Not available.
7:31 AM 7:44 PM
Waning Crescent, 21% visible
METAR KNQI 231956Z 13022G30KT 10SM FEW045 FEW160 29/18 A3000 RMK AO2 PK WND 15034/1915 SLP154 T02940178
Pressure 29.99 in
Visibility 10.0 miles
Clouds Few 4500 ft
Few 16000 ft
Heat Index 86 °F
Dew Point 64 °F
Humidity 49%
Rainfall 0.00 in
Snow Depth Not available.
7:31 AM 7:44 PM
Waning Crescent, 21% visible
METAR KNQI 231956Z 13022G30KT 10SM FEW045 FEW160 29/18 A3000 RMK AO2 PK WND 15034/1915 SLP154 T02940178

Get Your Daily Forecast Email!

Thanks for signing up!

Be on the lookout for a verification email in your inbox.

You'll start receiving severe weather alerts in your inbox..

×

10-Day Weather Forecast

Almanac

Astronomy

Mar. 23, 2017 Rise Set
Actual Time
Civil Twilight
Nautical Twilight
Astronomical Twilight
Moon
Length of Visible Light
Length of Day
Tomorrow will be .
, % of the Moon is Illuminated

Today's Extremes

State Highs State Lows

Community

WunderPhotos

Upload Photos

1,962,540 photos uploaded!

WunderBlog® & News

Nearby

Air Quality

  Air Quality AQ Index Pollutant
Not available.

Snow Depth

Station Depth Elevation

Earthquake Activity

City Distance Mag. Time & Date
Minimum magnitude displayed is 2.5.

Earthquake Activity

City Distance Mag. Time & Date
Minimum magnitude displayed is 2.5.

Coastal Water Temperatures

Place Temperature

Stations

Nearby Weather Stations

Station Location Temp. Windchill Dew Point Humidity Wind Precip. Elev Updated Type
                   

Watches & Warnings

Wind Advisory
Issued: 3:24 AM CDT Mar. 23, 2017 – National Weather Service

... Wind Advisory in effect from noon today to 6 PM CDT this
evening...

The National Weather Service in Corpus Christi has issued a Wind
Advisory, which is in effect from noon today to 6 PM CDT this
evening.

* Timing... through the afternoon hours.

* Winds... south to southeast winds 25 to 35 mph with gusts around
40 mph.

* Impacts... driving high profile vehicles may become difficult,
especially over area bridges and elevated roadways. Strong
winds may displace loose objects and could result in minor
property damage.

Precautionary/preparedness actions...

A Wind Advisory means that sustained winds of 30 mph or greater...
or wind gusts around 40 mph or greater are expected. Winds this
strong can make driving difficult... especially for high profile
vehicles. Use extra caution.



Tmt